Yusho Mermaid 2 — 3ESQ2 — position and weather

sailwx.info

Track history (hours):
 
Tides and Currents Weather Stations Pressure Air Temp Water Temp Dewpoint Dewpoint Depression Visibility Wind Speed Wind Dir Waves Ship Positions

Yusho Mermaid 2

Last reported at 2018-Jul-18 11:35 UTC. Time now 2018-Jul-20 06:30 UTC.
Position N 22°48' E 120°04'.

Length 82 m; draft 5 m.

Type: Ship (hazmat cat A). MMSI: 370391000.

Date/timePositionNaut miles runAvg speedWind from/ knotsBaromVisibWave heightAir tempDewpointWater temp
2018-Jul-18 11:35N 22°48' E 120°04'1 9.5
2018-Jul-18 11:30N 22°48' E 120°04'10 9.8
2018-Jul-18 10:30N 22°40' E 120°10'5 9.3
2018-Jul-18 10:00N 22°37' E 120°15'3 6.3
2018-Jul-18 09:30N 22°36' E 120°18'0 0.1
2018-Jul-18 08:57N 22°36' E 120°18'0 0.0
2018-Jul-18 08:21N 22°36' E 120°18'0 0.0
2018-Jul-18 07:57N 22°36' E 120°18'0 0.0
2018-Jul-18 07:27N 22°36' E 120°18'0 0.0
2018-Jul-18 06:57N 22°36' E 120°18'0 0.0
2018-Jul-18 06:27N 22°36' E 120°18'0 0.0
2018-Jul-18 05:57N 22°36' E 120°18'0 0.0
2018-Jul-18 05:21N 22°36' E 120°18'0 0.0
2018-Jul-18 04:51N 22°36' E 120°18'0 0.0
2018-Jul-18 04:27N 22°36' E 120°18'0 0.0
2018-Jul-18 03:57N 22°36' E 120°18'0 0.0
2018-Jul-18 03:27N 22°36' E 120°18'0 0.0
2018-Jul-18 02:39N 22°36' E 120°18'0 0.0
2018-Jul-18 02:21N 22°36' E 120°18'0 0.0
2018-Jul-18 01:45N 22°36' E 120°18'0 0.0
2018-Jul-18 01:21N 22°36' E 120°18'0 0.0
2018-Jul-18 00:57N 22°36' E 120°18'0 0.0
2018-Jul-18 00:21N 22°36' E 120°18'0 0.0
2018-Jul-17 23:51N 22°36' E 120°18'0 0.0
2018-Jul-17 23:27N 22°36' E 120°18'0 0.0
2018-Jul-17 22:57N 22°36' E 120°18'0 0.0
2018-Jul-17 22:27N 22°36' E 120°18'0 0.0
2018-Jul-17 21:57N 22°36' E 120°18'0 0.0
2018-Jul-17 21:27N 22°36' E 120°18'0 0.0
2018-Jul-17 20:57N 22°36' E 120°18'0 0.0
2018-Jul-17 20:27N 22°36' E 120°18'0 0.0
2018-Jul-17 19:57N 22°36' E 120°18'0 0.0
2018-Jul-17 19:21N 22°36' E 120°18'0 0.0
2018-Jul-17 18:57N 22°36' E 120°18'0 0.0
2018-Jul-17 18:27N 22°36' E 120°18'0 0.0
2018-Jul-17 17:57N 22°36' E 120°18'0 0.0
2018-Jul-17 17:27N 22°36' E 120°18'0 0.0
2018-Jul-17 12:33N 22°36' E 120°18'0 0.0
2018-Jul-17 12:21N 22°36' E 120°18'0 0.0
2018-Jul-17 11:51N 22°36' E 120°18'0 0.0
2018-Jul-17 11:27N 22°36' E 120°18'0 0.0
2018-Jul-17 10:33N 22°36' E 120°18'0 0.0
2018-Jul-17 10:27N 22°36' E 120°18'0 0.0
2018-Jul-17 09:39N 22°36' E 120°18'0 0.0
2018-Jul-17 09:09N 22°36' E 120°18'0 0.0
2018-Jul-17 08:51N 22°36' E 120°18'0 0.0
2018-Jul-17 08:27N 22°36' E 120°18'0 0.0
2018-Jul-17 07:57N 22°36' E 120°18'0 0.0
2018-Jul-17 07:21N 22°36' E 120°18'0 0.0
2018-Jul-17 06:57N 22°36' E 120°18'0 0.0
2018-Jul-17 06:27N 22°36' E 120°18'0 0.0
2018-Jul-17 05:57N 22°36' E 120°18'0 0.0
2018-Jul-17 05:27N 22°36' E 120°18'0 0.0
2018-Jul-17 04:45N 22°36' E 120°18'0 0.0
2018-Jul-17 04:15N 22°36' E 120°18'0 0.0
2018-Jul-17 03:09N 22°36' E 120°18'0 0.0
2018-Jul-17 02:45N 22°36' E 120°18'0 0.0
2018-Jul-17 02:27N 22°36' E 120°18'0 0.0
2018-Jul-17 01:57N 22°36' E 120°18'0 0.0
2018-Jul-17 01:27N 22°36' E 120°18'0 0.0
2018-Jul-16 23:25N 22°36' E 120°18'0 0.0
2018-Jul-16 22:57N 22°36' E 120°18'2 5.2
2018-Jul-16 22:28N 22°37' E 120°15'1 1.4
2018-Jul-16 21:58N 22°36' E 120°15'0 0.0
2018-Jul-16 21:29N 22°36' E 120°15'0 0.0
2018-Jul-16 20:59N 22°36' E 120°15'0 0.0
2018-Jul-16 20:29N 22°36' E 120°15'0 0.0
2018-Jul-16 20:00N 22°36' E 120°15'0 0.0
2018-Jul-16 19:29N 22°36' E 120°15'0 0.0
2018-Jul-16 19:00N 22°36' E 120°15'0 0.0
2018-Jul-16 18:26N 22°36' E 120°15'0 0.1
2018-Jul-16 18:00N 22°36' E 120°16'0 0.0
2018-Jul-16 17:30N 22°36' E 120°16'0 0.0
2018-Jul-16 16:59N 22°36' E 120°16'0 0.0
2018-Jul-16 16:30N 22°36' E 120°16'0 0.0
2018-Jul-16 16:00N 22°36' E 120°16'0 0.0
2018-Jul-16 15:30N 22°36' E 120°16'0 0.0
2018-Jul-16 15:00N 22°36' E 120°16'0 0.1
2018-Jul-16 14:30N 22°36' E 120°15'0 0.0
2018-Jul-16 14:00N 22°36' E 120°15'0 0.0
2018-Jul-16 13:27N 22°36' E 120°15'0 0.0
2018-Jul-16 13:00N 22°36' E 120°15'0 0.0
2018-Jul-16 12:30N 22°36' E 120°15'0 0.0
2018-Jul-16 12:00N 22°36' E 120°15'0 0.0
2018-Jul-16 11:31N 22°36' E 120°15'2 3.0
2018-Jul-16 11:00N 22°37' E 120°14'510.3
2018-Jul-16 10:31N 22°40' E 120°10'610.9
2018-Jul-16 10:01N 22°45' E 120°06'611.6
2018-Jul-16 09:30N 22°50' E 120°03'  
2018-Jul-09 14:43N 34°25' E 134°21'210.8
2018-Jul-09 14:30N 34°25' E 134°23'510.7
2018-Jul-09 14:00N 34°28' E 134°29'510.5
2018-Jul-09 13:30N 34°30' E 134°35'510.5
2018-Jul-09 13:00N 34°32' E 134°41'611.7
2018-Jul-09 12:30N 34°34' E 134°47'611.4
2018-Jul-09 11:59N 34°36' E 134°54'611.2
2018-Jul-09 11:27N 34°37' E 135°01'510.6
2018-Jul-09 11:00N 34°36' E 135°07'510.2
2018-Jul-09 10:30N 34°34' E 135°12'510.2
2018-Jul-09 10:00N 34°34' E 135°19'5 9.7
2018-Jul-09 09:28N 34°33' E 135°25'1 1.7
2018-Jul-09 08:52N 34°34' E 135°26'0 0.0
2018-Jul-09 08:13N 34°34' E 135°26'0 0.0
2018-Jul-09 07:55N 34°34' E 135°26'0 0.0
2018-Jul-09 07:19N 34°34' E 135°26'0 0.0
2018-Jul-09 05:19N 34°34' E 135°26'0 0.0
2018-Jul-09 04:49N 34°34' E 135°26'0 0.0
2018-Jul-09 04:25N 34°34' E 135°26'0 0.0
2018-Jul-09 03:55N 34°34' E 135°26'0 0.0
2018-Jul-09 03:19N 34°34' E 135°26'0 0.1
2018-Jul-09 03:00N 34°34' E 135°26'2 4.4
2018-Jul-09 02:31N 34°34' E 135°24'1 1.0
2018-Jul-09 01:48N 34°34' E 135°23'0 0.0
2018-Jul-09 01:30N 34°34' E 135°23'0 0.0
2018-Jul-09 00:48N 34°34' E 135°23'0 0.0
2018-Jul-09 00:30N 34°34' E 135°23'0 0.0
2018-Jul-08 23:54N 34°34' E 135°23'0 0.1
2018-Jul-08 23:30N 34°34' E 135°23'0 0.0
2018-Jul-08 21:36N 34°34' E 135°23'0 0.0
2018-Jul-08 21:30N 34°34' E 135°23'0 0.0
2018-Jul-08 21:00N 34°34' E 135°23'0 0.1
2018-Jul-08 20:24N 34°34' E 135°23'0 0.0
2018-Jul-08 20:00N 34°34' E 135°23'0 0.0
2018-Jul-08 15:48N 34°34' E 135°23'0 0.0
2018-Jul-08 15:18N 34°34' E 135°23'0 0.0
2018-Jul-08 13:06N 34°34' E 135°23'0 0.1
2018-Jul-08 13:00N 34°34' E 135°23'0 0.1
2018-Jul-08 12:30N 34°34' E 135°23'0 0.1
2018-Jul-08 12:00N 34°34' E 135°23'  
Track history (hours):
 
Tides and Currents Weather Stations Pressure Air Temp Water Temp Dewpoint Dewpoint Depression Visibility Wind Speed Wind Dir Waves Ship Positions

Yusho Mermaid 2

Last reported at 2018-Jul-18 11:35 UTC. Time now 2018-Jul-20 06:30 UTC.
Position N 22°48' E 120°04'.

Length 82 m; draft 5 m.

Type: Ship (hazmat cat A). MMSI: 370391000.

Date/timePositionNaut miles runAvg speedWind from/ knotsBaromVisibWave heightAir tempDewpointWater temp
2018-Jul-18 11:35N 22°48' E 120°04'1 9.5
2018-Jul-18 11:30N 22°48' E 120°04'10 9.8
2018-Jul-18 10:30N 22°40' E 120°10'5 9.3
2018-Jul-18 10:00N 22°37' E 120°15'3 6.3
2018-Jul-18 09:30N 22°36' E 120°18'0 0.1
2018-Jul-18 08:57N 22°36' E 120°18'0 0.0
2018-Jul-18 08:21N 22°36' E 120°18'0 0.0
2018-Jul-18 07:57N 22°36' E 120°18'0 0.0
2018-Jul-18 07:27N 22°36' E 120°18'0 0.0
2018-Jul-18 06:57N 22°36' E 120°18'0 0.0
2018-Jul-18 06:27N 22°36' E 120°18'0 0.0
2018-Jul-18 05:57N 22°36' E 120°18'0 0.0
2018-Jul-18 05:21N 22°36' E 120°18'0 0.0
2018-Jul-18 04:51N 22°36' E 120°18'0 0.0
2018-Jul-18 04:27N 22°36' E 120°18'0 0.0
2018-Jul-18 03:57N 22°36' E 120°18'0 0.0
2018-Jul-18 03:27N 22°36' E 120°18'0 0.0
2018-Jul-18 02:39N 22°36' E 120°18'0 0.0
2018-Jul-18 02:21N 22°36' E 120°18'0 0.0
2018-Jul-18 01:45N 22°36' E 120°18'0 0.0
2018-Jul-18 01:21N 22°36' E 120°18'0 0.0
2018-Jul-18 00:57N 22°36' E 120°18'0 0.0
2018-Jul-18 00:21N 22°36' E 120°18'0 0.0
2018-Jul-17 23:51N 22°36' E 120°18'0 0.0
2018-Jul-17 23:27N 22°36' E 120°18'0 0.0
2018-Jul-17 22:57N 22°36' E 120°18'0 0.0
2018-Jul-17 22:27N 22°36' E 120°18'0 0.0
2018-Jul-17 21:57N 22°36' E 120°18'0 0.0
2018-Jul-17 21:27N 22°36' E 120°18'0 0.0
2018-Jul-17 20:57N 22°36' E 120°18'0 0.0
2018-Jul-17 20:27N 22°36' E 120°18'0 0.0
2018-Jul-17 19:57N 22°36' E 120°18'0 0.0
2018-Jul-17 19:21N 22°36' E 120°18'0 0.0
2018-Jul-17 18:57N 22°36' E 120°18'0 0.0
2018-Jul-17 18:27N 22°36' E 120°18'0 0.0
2018-Jul-17 17:57N 22°36' E 120°18'0 0.0
2018-Jul-17 17:27N 22°36' E 120°18'0 0.0
2018-Jul-17 12:33N 22°36' E 120°18'0 0.0
2018-Jul-17 12:21N 22°36' E 120°18'0 0.0
2018-Jul-17 11:51N 22°36' E 120°18'0 0.0
2018-Jul-17 11:27N 22°36' E 120°18'0 0.0
2018-Jul-17 10:33N 22°36' E 120°18'0 0.0
2018-Jul-17 10:27N 22°36' E 120°18'0 0.0
2018-Jul-17 09:39N 22°36' E 120°18'0 0.0
2018-Jul-17 09:09N 22°36' E 120°18'0 0.0
2018-Jul-17 08:51N 22°36' E 120°18'0 0.0
2018-Jul-17 08:27N 22°36' E 120°18'0 0.0
2018-Jul-17 07:57N 22°36' E 120°18'0 0.0
2018-Jul-17 07:21N 22°36' E 120°18'0 0.0
2018-Jul-17 06:57N 22°36' E 120°18'0 0.0
2018-Jul-17 06:27N 22°36' E 120°18'0 0.0
2018-Jul-17 05:57N 22°36' E 120°18'0 0.0
2018-Jul-17 05:27N 22°36' E 120°18'0 0.0
2018-Jul-17 04:45N 22°36' E 120°18'0 0.0
2018-Jul-17 04:15N 22°36' E 120°18'0 0.0
2018-Jul-17 03:09N 22°36' E 120°18'0 0.0
2018-Jul-17 02:45N 22°36' E 120°18'0 0.0
2018-Jul-17 02:27N 22°36' E 120°18'0 0.0
2018-Jul-17 01:57N 22°36' E 120°18'0 0.0
2018-Jul-17 01:27N 22°36' E 120°18'0 0.0
2018-Jul-16 23:25N 22°36' E 120°18'0 0.0
2018-Jul-16 22:57N 22°36' E 120°18'2 5.2
2018-Jul-16 22:28N 22°37' E 120°15'1 1.4
2018-Jul-16 21:58N 22°36' E 120°15'0 0.0
2018-Jul-16 21:29N 22°36' E 120°15'0 0.0
2018-Jul-16 20:59N 22°36' E 120°15'0 0.0
2018-Jul-16 20:29N 22°36' E 120°15'0 0.0
2018-Jul-16 20:00N 22°36' E 120°15'0 0.0
2018-Jul-16 19:29N 22°36' E 120°15'0 0.0
2018-Jul-16 19:00N 22°36' E 120°15'0 0.0
2018-Jul-16 18:26N 22°36' E 120°15'0 0.1
2018-Jul-16 18:00N 22°36' E 120°16'0 0.0
2018-Jul-16 17:30N 22°36' E 120°16'0 0.0
2018-Jul-16 16:59N 22°36' E 120°16'0 0.0
2018-Jul-16 16:30N 22°36' E 120°16'0 0.0
2018-Jul-16 16:00N 22°36' E 120°16'0 0.0
2018-Jul-16 15:30N 22°36' E 120°16'0 0.0
2018-Jul-16 15:00N 22°36' E 120°16'0 0.1
2018-Jul-16 14:30N 22°36' E 120°15'0 0.0
2018-Jul-16 14:00N 22°36' E 120°15'0 0.0
2018-Jul-16 13:27N 22°36' E 120°15'0 0.0
2018-Jul-16 13:00N 22°36' E 120°15'0 0.0
2018-Jul-16 12:30N 22°36' E 120°15'0 0.0
2018-Jul-16 12:00N 22°36' E 120°15'0 0.0
2018-Jul-16 11:31N 22°36' E 120°15'2 3.0
2018-Jul-16 11:00N 22°37' E 120°14'510.3
2018-Jul-16 10:31N 22°40' E 120°10'610.9
2018-Jul-16 10:01N 22°45' E 120°06'611.6
2018-Jul-16 09:30N 22°50' E 120°03'  
2018-Jul-09 14:43N 34°25' E 134°21'210.8
2018-Jul-09 14:30N 34°25' E 134°23'510.7
2018-Jul-09 14:00N 34°28' E 134°29'510.5
2018-Jul-09 13:30N 34°30' E 134°35'510.5
2018-Jul-09 13:00N 34°32' E 134°41'611.7
2018-Jul-09 12:30N 34°34' E 134°47'611.4
2018-Jul-09 11:59N 34°36' E 134°54'611.2
2018-Jul-09 11:27N 34°37' E 135°01'510.6
2018-Jul-09 11:00N 34°36' E 135°07'510.2
2018-Jul-09 10:30N 34°34' E 135°12'510.2
2018-Jul-09 10:00N 34°34' E 135°19'5 9.7
2018-Jul-09 09:28N 34°33' E 135°25'1 1.7
2018-Jul-09 08:52N 34°34' E 135°26'0 0.0
2018-Jul-09 08:13N 34°34' E 135°26'0 0.0
2018-Jul-09 07:55N 34°34' E 135°26'0 0.0
2018-Jul-09 07:19N 34°34' E 135°26'0 0.0
2018-Jul-09 05:19N 34°34' E 135°26'0 0.0
2018-Jul-09 04:49N 34°34' E 135°26'0 0.0
2018-Jul-09 04:25N 34°34' E 135°26'0 0.0
2018-Jul-09 03:55N 34°34' E 135°26'0 0.0
2018-Jul-09 03:19N 34°34' E 135°26'0 0.1
2018-Jul-09 03:00N 34°34' E 135°26'2 4.4
2018-Jul-09 02:31N 34°34' E 135°24'1 1.0
2018-Jul-09 01:48N 34°34' E 135°23'0 0.0
2018-Jul-09 01:30N 34°34' E 135°23'0 0.0
2018-Jul-09 00:48N 34°34' E 135°23'0 0.0
2018-Jul-09 00:30N 34°34' E 135°23'0 0.0
2018-Jul-08 23:54N 34°34' E 135°23'0 0.1
2018-Jul-08 23:30N 34°34' E 135°23'0 0.0
2018-Jul-08 21:36N 34°34' E 135°23'0 0.0
2018-Jul-08 21:30N 34°34' E 135°23'0 0.0
2018-Jul-08 21:00N 34°34' E 135°23'0 0.1
2018-Jul-08 20:24N 34°34' E 135°23'0 0.0
2018-Jul-08 20:00N 34°34' E 135°23'0 0.0
2018-Jul-08 15:48N 34°34' E 135°23'0 0.0
2018-Jul-08 15:18N 34°34' E 135°23'0 0.0
2018-Jul-08 13:06N 34°34' E 135°23'0 0.1
2018-Jul-08 13:00N 34°34' E 135°23'0 0.1
2018-Jul-08 12:30N 34°34' E 135°23'0 0.1
2018-Jul-08 12:00N 34°34' E 135°23'  

Dump ship's entire track history